Time;durP1;ratioP1;P1;durP2;ratioP2;P2;SDS_P1;SDS_P2;PMS_P1;PMS_P2;Temp;Humidity;BMP_temperature;BMP_pressure;BME280_temperature;BME280_humidity;BME280_pressure;Samples;Min_cycle;Max_cycle;Signal;HPM_P1;HPM_P2
2022/07/26 00:02:09;;;;;;;14.15;1.77;;;22.10;77.20;;;;;;5011275;28;20036;-70
2022/07/26 00:04:34;;;;;;;7.75;1.75;;;22.10;77.40;;;;;;5011293;28;20471;-71
2022/07/26 00:07:00;;;;;;;8.00;1.75;;;22.10;77.50;;;;;;5010984;28;20096;-70
2022/07/26 00:09:26;;;;;;;8.43;1.80;;;22.20;77.30;;;;;;5011081;28;20041;-70
2022/07/26 00:11:52;;;;;;;6.55;1.70;;;22.30;77.30;;;;;;5010671;28;20129;-70
2022/07/26 00:14:18;;;;;;;5.55;1.55;;;22.20;77.30;;;;;;5011081;28;20105;-70
2022/07/26 00:16:43;;;;;;;5.55;1.15;;;22.20;77.30;;;;;;5011010;28;20445;-70
2022/07/26 00:19:09;;;;;;;8.20;1.83;;;22.20;77.40;;;;;;5010795;28;20030;-70
2022/07/26 00:21:36;;;;;;;5.43;1.50;;;22.20;77.10;;;;;;5010912;28;20030;-71
2022/07/26 00:24:03;;;;;;;6.00;1.80;;;22.30;77.10;;;;;;5010750;28;20617;-71
2022/07/26 00:26:28;;;;;;;4.88;1.55;;;22.30;77.00;;;;;;5012666;28;20045;-71
2022/07/26 00:28:54;;;;;;;4.57;1.25;;;22.30;77.00;;;;;;5014219;28;20018;-71
2022/07/26 00:31:20;;;;;;;10.52;1.85;;;22.30;77.00;;;;;;5014564;28;20034;-70
2022/07/26 00:33:46;;;;;;;4.45;1.33;;;22.30;77.10;;;;;;5014507;28;20337;-70
2022/07/26 00:36:11;;;;;;;8.77;1.13;;;22.20;77.30;;;;;;5014344;28;20033;-71
2022/07/26 00:38:37;;;;;;;8.30;2.00;;;22.10;77.50;;;;;;5014058;28;20040;-70
2022/07/26 00:41:06;;;;;;;8.70;1.42;;;22.00;77.90;;;;;;5013032;28;20361;-70
2022/07/26 00:43:32;;;;;;;9.63;1.48;;;22.00;77.90;;;;;;5014791;28;20431;-70
2022/07/26 00:45:58;;;;;;;4.72;1.52;;;22.00;78.00;;;;;;5014343;28;20425;-70
2022/07/26 00:48:24;;;;;;;4.88;1.50;;;22.10;77.80;;;;;;5014130;28;20044;-70
2022/07/26 00:50:52;;;;;;;6.93;1.55;;;22.10;78.40;;;;;;5014174;28;20461;-70
2022/07/26 00:53:19;;;;;;;13.52;1.60;;;22.00;77.90;;;;;;5014151;28;20030;-69
2022/07/26 00:55:46;;;;;;;4.10;1.40;;;22.10;77.80;;;;;;5014393;28;20531;-71
2022/07/26 00:58:12;;;;;;;6.95;1.77;;;22.10;77.70;;;;;;5014133;28;20030;-70
2022/07/26 01:00:38;;;;;;;7.28;1.77;;;22.20;78.40;;;;;;5014191;28;20033;-70
2022/07/26 01:03:05;;;;;;;8.43;1.63;;;22.30;77.60;;;;;;5013962;28;20424;-70
2022/07/26 01:05:31;;;;;;;11.88;1.50;;;22.30;77.30;;;;;;5013753;28;20100;-71
2022/07/26 01:07:57;;;;;;;7.07;1.52;;;22.30;77.30;;;;;;5014127;28;20056;-70
2022/07/26 01:10:23;;;;;;;8.80;1.80;;;22.30;77.30;;;;;;5014148;28;20033;-71
2022/07/26 01:12:49;;;;;;;8.93;2.22;;;22.30;77.50;;;;;;5013719;28;20488;-70
2022/07/26 01:15:16;;;;;;;4.97;1.58;;;22.20;77.90;;;;;;5013761;28;20045;-70
2022/07/26 01:17:42;;;;;;;4.68;1.55;;;22.20;77.40;;;;;;5013494;28;20411;-70
2022/07/26 01:20:10;;;;;;;5.95;1.50;;;22.30;77.30;;;;;;5012625;28;20045;-70
2022/07/26 01:22:35;;;;;;;8.77;1.50;;;22.20;76.90;;;;;;5014052;28;20738;-70
2022/07/26 01:25:02;;;;;;;9.85;1.42;;;22.20;76.80;;;;;;5013549;28;20030;-70
2022/07/26 01:27:28;;;;;;;7.88;2.03;;;22.00;77.20;;;;;;5013594;28;20125;-70
2022/07/26 01:29:54;;;;;;;7.35;1.33;;;21.80;77.70;;;;;;5013309;28;20108;-70
2022/07/26 01:32:19;;;;;;;8.30;1.55;;;21.80;77.80;;;;;;5013481;28;20045;-70
2022/07/26 01:34:45;;;;;;;4.68;1.20;;;21.80;78.00;;;;;;5013695;28;20092;-69
2022/07/26 01:37:11;;;;;;;7.05;1.60;;;21.90;78.00;;;;;;5031266;28;20064;-70
2022/07/26 01:39:37;;;;;;;5.07;1.10;;;21.90;77.30;;;;;;5032630;28;20463;-70
2022/07/26 01:42:03;;;;;;;4.85;1.17;;;21.90;77.30;;;;;;5032862;28;20098;-71
2022/07/26 01:44:28;;;;;;;7.10;1.20;;;22.00;77.10;;;;;;5032942;28;20415;-69
2022/07/26 01:46:54;;;;;;;6.20;1.35;;;21.90;77.10;;;;;;5032304;28;20167;-70
2022/07/26 01:49:20;;;;;;;5.38;0.90;;;21.90;77.40;;;;;;5032834;28;20063;-70
2022/07/26 01:51:45;;;;;;;5.40;0.98;;;21.90;77.30;;;;;;5032645;28;20175;-71
2022/07/26 01:54:11;;;;;;;6.22;1.15;;;21.80;77.40;;;;;;5032465;28;20033;-70
2022/07/26 01:56:37;;;;;;;3.33;1.15;;;21.80;77.70;;;;;;5027690;28;20116;-70
2022/07/26 01:59:04;;;;;;;4.95;0.80;;;21.60;78.30;;;;;;5042690;28;20045;-70
2022/07/26 02:01:29;;;;;;;6.43;1.23;;;21.70;78.00;;;;;;5033392;28;20025;-71
2022/07/26 02:03:55;;;;;;;5.63;0.90;;;21.80;77.80;;;;;;5032468;28;20037;-70
2022/07/26 02:06:21;;;;;;;1.60;0.63;;;21.80;77.80;;;;;;5032632;28;20065;-70
2022/07/26 02:08:47;;;;;;;6.78;1.17;;;21.80;77.80;;;;;;5032534;28;20094;-71
2022/07/26 02:11:12;;;;;;;2.38;0.95;;;21.70;78.10;;;;;;5032336;28;20168;-70
2022/07/26 02:13:41;;;;;;;5.55;1.00;;;21.70;78.40;;;;;;5032752;28;20116;-71
2022/07/26 02:16:10;;;;;;;2.55;0.90;;;21.70;78.60;;;;;;5032384;28;20026;-70
2022/07/26 02:18:36;;;;;;;4.63;0.98;;;21.80;78.30;;;;;;5032242;28;20048;-70
2022/07/26 02:21:06;;;;;;;7.75;1.48;;;21.60;78.50;;;;;;5032271;28;20452;-71
2022/07/26 02:23:33;;;;;;;2.45;0.80;;;21.70;78.40;;;;;;5032280;28;20122;-71
2022/07/26 02:25:59;;;;;;;4.15;1.05;;;21.70;78.70;;;;;;5032153;28;20044;-69
2022/07/26 02:28:25;;;;;;;2.88;0.80;;;21.70;78.60;;;;;;5031506;28;20083;-70
2022/07/26 02:30:51;;;;;;;2.60;0.82;;;21.80;78.50;;;;;;5032010;28;20029;-71
2022/07/26 02:33:18;;;;;;;7.15;1.15;;;21.80;78.30;;;;;;5030891;28;20030;-71
2022/07/26 02:35:44;;;;;;;3.22;0.95;;;21.80;78.70;;;;;;5031919;28;20033;-70
2022/07/26 02:38:13;;;;;;;4.95;0.90;;;21.70;78.60;;;;;;5032003;28;20054;-70
2022/07/26 02:40:39;;;;;;;14.25;2.00;;;21.80;78.80;;;;;;5032353;28;20075;-70
2022/07/26 02:43:07;;;;;;;4.95;1.05;;;21.80;78.80;;;;;;5031773;28;20092;-71
2022/07/26 02:45:33;;;;;;;7.85;1.88;;;21.70;79.20;;;;;;5031739;28;20045;-71
2022/07/26 02:47:59;;;;;;;7.15;1.13;;;21.80;78.80;;;;;;5031711;28;20068;-70
2022/07/26 02:50:27;;;;;;;6.28;1.30;;;21.70;79.50;;;;;;5030638;28;20091;-70
2022/07/26 02:52:54;;;;;;;6.82;1.63;;;21.70;79.80;;;;;;5031956;28;20030;-71
2022/07/26 02:55:22;;;;;;;5.77;1.20;;;21.80;79.50;;;;;;5031535;28;20038;-71
2022/07/26 02:57:48;;;;;;;6.93;1.17;;;21.60;80.30;;;;;;5030508;28;20025;-70
2022/07/26 03:00:17;;;;;;;7.18;1.25;;;21.60;80.60;;;;;;5031618;28;20348;-71
2022/07/26 03:02:43;;;;;;;7.47;1.73;;;21.50;81.20;;;;;;5031433;28;20472;-71
2022/07/26 03:05:10;;;;;;;4.60;1.00;;;21.50;81.30;;;;;;5031538;28;20032;-71
2022/07/26 03:07:36;;;;;;;5.95;1.33;;;21.60;81.10;;;;;;5031836;28;20148;-70
2022/07/26 03:10:03;;;;;;;8.00;1.30;;;21.70;81.00;;;;;;5031664;28;20022;-71
2022/07/26 03:12:29;;;;;;;5.95;1.52;;;21.60;81.10;;;;;;5031182;28;20467;-70
2022/07/26 03:14:55;;;;;;;6.03;1.10;;;21.60;81.90;;;;;;5031110;28;20034;-71
2022/07/26 03:17:20;;;;;;;5.63;1.50;;;21.60;81.80;;;;;;5029923;28;20091;-70
2022/07/26 03:19:46;;;;;;;8.00;1.48;;;21.70;81.40;;;;;;5030424;28;20021;-71
2022/07/26 03:22:14;;;;;;;6.47;1.67;;;21.60;82.40;;;;;;5030940;28;20034;-71
2022/07/26 03:24:40;;;;;;;;;;;21.50;82.80;;;;;;5031363;28;20033;-71
2022/07/26 03:27:05;;;;;;;8.27;1.63;;;21.50;83.30;;;;;;5031346;28;19959;-70
2022/07/26 03:29:31;;;;;;;8.85;1.30;;;21.40;83.70;;;;;;5030995;28;20026;-69
2022/07/26 03:31:57;;;;;;;8.88;1.45;;;21.50;83.50;;;;;;5029856;28;20044;-70
2022/07/26 03:34:22;;;;;;;7.38;1.48;;;21.50;83.40;;;;;;5030157;28;20032;-70
2022/07/26 03:36:48;;;;;;;9.68;1.52;;;21.40;84.20;;;;;;5030872;28;20052;-70
2022/07/26 03:39:14;;;;;;;5.95;1.27;;;21.40;84.40;;;;;;5029953;28;20521;-71
2022/07/26 03:41:40;;;;;;;8.80;1.85;;;21.40;84.80;;;;;;5030844;28;20375;-70
2022/07/26 03:44:06;;;;;;;3.65;1.10;;;21.40;84.90;;;;;;5029615;28;20052;-70
2022/07/26 03:46:32;;;;;;;5.35;1.48;;;21.50;84.80;;;;;;5030164;28;20467;-71
2022/07/26 03:48:58;;;;;;;6.10;1.48;;;21.30;85.90;;;;;;5030904;28;20367;-71
2022/07/26 03:51:23;;;;;;;5.78;1.50;;;21.40;85.50;;;;;;5030542;28;20038;-70
2022/07/26 03:53:49;;;;;;;7.72;1.73;;;21.50;84.90;;;;;;5030617;28;20037;-71
2022/07/26 03:56:27;;;;;;;11.13;1.45;;;21.50;85.30;;;;;;5030310;28;20328;-70
2022/07/26 03:59:03;;;;;;;9.70;1.73;;;21.60;85.30;;;;;;5030894;28;20522;-70
2022/07/26 04:01:29;;;;;;;5.70;1.50;;;21.60;85.40;;;;;;5030269;28;20381;-71
2022/07/26 04:03:55;;;;;;;7.15;1.55;;;21.50;85.80;;;;;;5030391;28;20116;-71
2022/07/26 04:06:21;;;;;;;9.55;1.77;;;21.50;86.00;;;;;;5030271;28;20122;-70
2022/07/26 04:08:47;;;;;;;7.18;1.70;;;21.50;86.30;;;;;;5029213;28;20057;-71
2022/07/26 04:11:13;;;;;;;10.45;1.58;;;21.20;87.60;;;;;;5030285;28;20033;-70
2022/07/26 04:13:38;;;;;;;5.20;1.40;;;21.20;87.70;;;;;;5030774;28;20114;-71
2022/07/26 04:16:05;;;;;;;8.73;1.65;;;21.30;88.00;;;;;;5029384;28;20090;-71
2022/07/26 04:18:31;;;;;;;9.50;2.08;;;21.30;88.30;;;;;;5030475;28;20030;-71
2022/07/26 04:20:56;;;;;;;13.18;1.67;;;21.30;88.20;;;;;;5030110;28;20036;-71
2022/07/26 04:23:22;;;;;;;19.13;1.92;;;21.20;88.80;;;;;;5029121;28;20056;-70
2022/07/26 04:25:48;;;;;;;8.82;2.45;;;21.20;89.00;;;;;;5030886;28;20017;-70
2022/07/26 04:28:14;;;;;;;12.98;3.05;;;21.10;89.70;;;;;;5030168;28;20026;-71
2022/07/26 04:30:40;;;;;;;5.47;1.20;;;21.20;90.00;;;;;;5029094;28;20125;-70
2022/07/26 04:33:06;;;;;;;10.55;1.70;;;21.10;90.20;;;;;;5030103;28;20045;-71
2022/07/26 04:35:32;;;;;;;8.63;1.38;;;21.00;90.50;;;;;;5030148;28;20033;-70
2022/07/26 04:37:59;;;;;;;6.82;1.70;;;21.10;90.50;;;;;;5029203;28;20079;-70
2022/07/26 04:40:27;;;;;;;13.30;1.92;;;21.20;90.50;;;;;;5030448;28;20134;-69
2022/07/26 04:42:52;;;;;;;;;;;21.10;90.60;;;;;;5030400;28;20034;-70
2022/07/26 04:45:19;;;;;;;16.23;2.17;;;21.20;90.70;;;;;;5030216;28;20294;-71
2022/07/26 04:47:49;;;;;;;12.55;2.20;;;21.20;90.80;;;;;;5029948;28;20029;-70
2022/07/26 04:50:16;;;;;;;11.75;2.70;;;21.10;91.00;;;;;;5028880;28;20064;-71
2022/07/26 04:52:42;;;;;;;10.15;2.67;;;21.00;91.40;;;;;;5030419;28;20025;-72
2022/07/26 04:55:09;;;;;;;11.93;2.00;;;21.00;91.50;;;;;;5029850;28;20422;-71
2022/07/26 04:57:35;;;;;;;9.35;2.33;;;21.00;91.70;;;;;;5029842;28;20030;-71
2022/07/26 05:00:02;;;;;;;6.75;2.20;;;21.20;91.60;;;;;;5030062;28;20033;-72
2022/07/26 05:02:28;;;;;;;14.77;2.30;;;21.20;91.50;;;;;;5029857;28;20041;-72
2022/07/26 05:04:53;;;;;;;12.63;2.53;;;21.20;91.60;;;;;;5030157;28;20053;-70
2022/07/26 05:07:19;;;;;;;12.90;2.25;;;21.20;91.80;;;;;;5029881;28;20579;-70
2022/07/26 05:09:44;;;;;;;9.20;2.00;;;21.10;92.10;;;;;;5029800;28;20117;-72
2022/07/26 05:12:10;;;;;;;9.40;2.28;;;21.20;91.80;;;;;;5029840;28;20068;-72
2022/07/26 05:14:36;;;;;;;10.15;2.17;;;21.20;92.00;;;;;;5031795;28;20473;-71
2022/07/26 05:17:03;;;;;;;10.13;2.67;;;21.00;92.40;;;;;;5033152;28;20186;-71
2022/07/26 05:19:28;;;;;;;11.65;2.13;;;21.10;92.40;;;;;;5033747;28;20018;-71
2022/07/26 05:21:54;;;;;;;9.45;2.20;;;21.20;92.40;;;;;;5033421;28;20052;-71
2022/07/26 05:24:20;;;;;;;10.05;2.28;;;21.30;92.30;;;;;;5033221;28;20713;-72
2022/07/26 05:26:46;;;;;;;5.85;1.77;;;21.20;92.50;;;;;;5033085;28;20179;-72
2022/07/26 05:29:11;;;;;;;8.65;2.17;;;21.30;92.40;;;;;;5033199;28;20359;-70
2022/07/26 05:31:37;;;;;;;11.65;2.00;;;21.30;92.20;;;;;;5032398;28;20040;-71
2022/07/26 05:34:03;;;;;;;8.43;1.88;;;21.40;91.90;;;;;;5032877;28;20029;-72
2022/07/26 05:36:29;;;;;;;9.75;2.03;;;21.40;92.10;;;;;;5033000;28;20033;-72
2022/07/26 05:38:54;;;;;;;16.58;2.10;;;21.40;92.10;;;;;;5032976;28;20460;-72
2022/07/26 05:41:20;;;;;;;7.88;1.90;;;21.30;92.40;;;;;;5032808;28;20324;-72
2022/07/26 05:43:46;;;;;;;11.43;2.33;;;21.20;92.30;;;;;;5033087;28;20037;-74
2022/07/26 05:46:12;;;;;;;10.38;2.10;;;21.40;92.20;;;;;;5032942;28;20421;-72
2022/07/26 05:48:38;;;;;;;12.43;2.22;;;21.30;92.40;;;;;;5032708;28;20475;-72
2022/07/26 05:51:08;;;;;;;12.82;2.05;;;21.20;92.60;;;;;;5032602;28;20137;-73
2022/07/26 05:53:34;;;;;;;8.32;1.60;;;21.20;92.70;;;;;;5032779;28;20026;-74
2022/07/26 05:56:00;;;;;;;55.63;26.23;;;21.30;92.90;;;;;;5032751;28;20141;-72
2022/07/26 05:58:26;;;;;;;41.00;19.38;;;21.40;92.60;;;;;;5033026;28;20033;-74
2022/07/26 06:00:52;;;;;;;15.63;3.97;;;21.40;92.50;;;;;;5032677;28;20528;-73
2022/07/26 06:03:24;;;;;;;15.40;2.47;;;21.50;92.40;;;;;;5032660;28;20112;-71
2022/07/26 06:05:55;;;;;;;7.72;2.03;;;21.50;92.50;;;;;;5032883;28;20116;-73
2022/07/26 06:08:23;;;;;;;48.88;28.92;;;21.50;92.90;;;;;;5032269;28;20105;-72
2022/07/26 06:10:49;;;;;;;186.57;103.70;;;21.60;92.50;;;;;;5032723;28;20436;-70
2022/07/26 06:13:15;;;;;;;29.13;11.98;;;21.70;92.40;;;;;;5032232;28;20442;-72
2022/07/26 06:15:41;;;;;;;17.48;4.43;;;21.60;92.50;;;;;;5031156;28;20040;-71
2022/07/26 06:18:08;;;;;;;13.77;2.42;;;21.70;92.40;;;;;;5032341;28;20103;-69
2022/07/26 06:20:40;;;;;;;13.40;2.15;;;21.70;92.40;;;;;;5032344;28;20030;-70
2022/07/26 06:23:06;;;;;;;9.90;1.90;;;21.70;92.40;;;;;;5032049;28;20336;-70
2022/07/26 06:25:32;;;;;;;8.63;1.65;;;21.60;92.50;;;;;;5032251;28;20059;-71
2022/07/26 06:27:58;;;;;;;13.50;2.00;;;21.60;92.60;;;;;;5031878;28;20026;-70
2022/07/26 06:30:23;;;;;;;10.82;2.65;;;21.70;92.60;;;;;;5031935;28;20030;-71
2022/07/26 06:32:49;;;;;;;9.45;2.13;;;21.80;92.50;;;;;;5032009;28;20404;-72
2022/07/26 06:35:15;;;;;;;5.88;2.15;;;21.80;92.40;;;;;;5031741;28;20083;-70
2022/07/26 06:37:42;;;;;;;12.82;2.78;;;21.80;92.40;;;;;;5032605;28;20053;-70
2022/07/26 06:40:10;;;;;;;12.50;2.60;;;21.90;92.40;;;;;;5031902;28;20052;-70
2022/07/26 06:42:36;;;;;;;;;;;21.60;92.50;;;;;;5032094;28;20044;-70
2022/07/26 06:45:04;;;;;;;11.82;2.63;;;21.80;92.50;;;;;;5031955;28;19913;-71
2022/07/26 06:47:29;;;;;;;18.52;9.25;;;21.60;92.70;;;;;;5031640;28;20037;-71
2022/07/26 06:49:55;;;;;;;17.33;8.32;;;21.70;92.60;;;;;;5031901;28;20055;-70
2022/07/26 06:52:21;;;;;;;36.25;16.63;;;21.60;92.60;;;;;;5031601;28;20376;-70
2022/07/26 06:54:47;;;;;;;37.35;17.52;;;21.70;92.70;;;;;;5031234;28;20029;-70
2022/07/26 06:57:13;;;;;;;191.65;87.15;;;21.70;92.50;;;;;;5031346;28;20456;-70
2022/07/26 06:59:38;;;;;;;18.63;9.38;;;21.70;92.60;;;;;;5030491;28;20033;-74
2022/07/26 07:02:04;;;;;;;8.70;2.58;;;21.90;92.50;;;;;;5031367;28;20025;-72
2022/07/26 07:04:31;;;;;;;11.30;2.35;;;21.80;92.40;;;;;;5031828;28;20021;-71
2022/07/26 07:07:01;;;;;;;15.57;2.67;;;22.00;92.20;;;;;;5031350;28;20512;-71
2022/07/26 07:09:27;;;;;;;9.13;3.35;;;22.00;92.10;;;;;;5031149;28;20483;-72
2022/07/26 07:11:53;;;;;;;10.82;2.65;;;22.10;92.40;;;;;;5031201;28;20045;-72
2022/07/26 07:14:19;;;;;;;6.80;2.33;;;22.00;92.10;;;;;;5031171;28;20041;-72
2022/07/26 07:16:48;;;;;;;9.65;2.90;;;21.90;92.10;;;;;;5031444;28;20030;-74
2022/07/26 07:19:14;;;;;;;8.85;4.13;;;21.80;92.00;;;;;;5031195;28;20068;-74
2022/07/26 07:21:39;;;;;;;8.73;2.53;;;21.90;92.60;;;;;;5030849;28;20068;-72
2022/07/26 07:24:05;;;;;;;9.63;2.55;;;21.90;92.20;;;;;;5031087;28;20037;-77
2022/07/26 07:26:31;;;;;;;9.90;2.22;;;21.80;92.20;;;;;;5030338;28;20473;-73
2022/07/26 07:28:57;;;;;;;8.13;2.42;;;21.90;92.20;;;;;;5030781;28;20104;-70
2022/07/26 07:31:23;;;;;;;7.95;2.22;;;22.10;92.00;;;;;;5031015;28;20386;-72
2022/07/26 07:33:49;;;;;;;8.00;2.85;;;22.30;91.70;;;;;;5031074;28;20486;-74
2022/07/26 07:36:15;;;;;;;6.22;2.22;;;22.40;91.30;;;;;;5030297;28;20025;-74
2022/07/26 07:38:40;;;;;;;16.52;1.98;;;22.40;91.30;;;;;;5030870;28;20460;-73
2022/07/26 07:41:06;;;;;;;6.70;2.40;;;22.40;91.20;;;;;;5030833;28;20362;-73
2022/07/26 07:43:32;;;;;;;11.35;2.25;;;22.50;90.90;;;;;;5031321;28;20018;-74
2022/07/26 07:45:57;;;;;;;9.13;2.45;;;22.50;90.70;;;;;;5030528;28;20021;-72
2022/07/26 07:48:23;;;;;;;8.77;2.42;;;22.50;90.60;;;;;;5030531;28;20096;-72
2022/07/26 07:50:48;;;;;;;6.43;1.85;;;22.50;90.20;;;;;;5030618;28;20124;-72
2022/07/26 07:53:14;;;;;;;13.70;7.00;;;22.50;90.40;;;;;;5030311;28;20057;-74
2022/07/26 07:55:40;;;;;;;12.63;6.05;;;22.50;90.10;;;;;;5031005;28;20416;-71
2022/07/26 07:58:05;;;;;;;21.67;12.88;;;22.60;89.60;;;;;;5030921;28;20030;-72
2022/07/26 08:00:31;;;;;;;7.85;2.53;;;22.70;89.90;;;;;;5030523;28;20034;-71
2022/07/26 08:02:57;;;;;;;14.43;2.33;;;22.80;89.60;;;;;;5029409;28;20033;-72
2022/07/26 08:05:22;;;;;;;7.35;2.10;;;22.70;89.10;;;;;;5030240;28;20029;-70
2022/07/26 08:07:48;;;;;;;8.30;2.30;;;22.80;89.10;;;;;;5029773;28;20104;-71
2022/07/26 08:10:15;;;;;;;4.45;1.77;;;22.80;89.10;;;;;;5029112;28;20463;-71
2022/07/26 08:12:41;;;;;;;7.32;2.63;;;23.00;88.50;;;;;;5030227;28;20052;-70
2022/07/26 08:15:07;;;;;;;7.03;2.00;;;23.10;87.60;;;;;;5029116;28;20037;-71
2022/07/26 08:17:33;;;;;;;7.60;1.90;;;23.20;87.20;;;;;;5030280;28;20485;-70
2022/07/26 08:19:59;;;;;;;9.93;2.65;;;23.30;86.50;;;;;;5030566;28;20120;-70
2022/07/26 08:22:25;;;;;;;6.57;2.30;;;23.10;86.70;;;;;;5030700;28;20101;-70
2022/07/26 08:24:51;;;;;;;10.13;2.53;;;23.30;86.60;;;;;;5029878;28;20106;-71
2022/07/26 08:27:17;;;;;;;166.63;91.95;;;23.00;88.40;;;;;;5028982;28;20361;-70
2022/07/26 08:29:42;;;;;;;164.73;100.68;;;22.90;90.60;;;;;;5030399;28;20145;-72
2022/07/26 08:32:08;;;;;;;11.20;5.38;;;22.80;91.10;;;;;;5030149;28;20084;-72
2022/07/26 08:34:34;;;;;;;4.95;2.05;;;22.80;91.90;;;;;;5030469;28;20018;-72
2022/07/26 08:37:00;;;;;;;3.97;1.67;;;22.40;93.30;;;;;;5030056;28;20033;-73
2022/07/26 08:39:25;;;;;;;4.50;1.30;;;22.00;94.40;;;;;;5029998;28;20100;-71
2022/07/26 08:41:51;;;;;;;3.33;1.20;;;21.90;94.80;;;;;;5029946;28;20100;-73
2022/07/26 08:44:18;;;;;;;2.95;1.10;;;21.80;95.00;;;;;;5029124;28;20356;-74
2022/07/26 08:46:44;;;;;;;3.80;1.15;;;21.60;95.30;;;;;;5031147;28;20032;-72
2022/07/26 08:49:11;;;;;;;7.35;1.70;;;21.60;96.10;;;;;;5032611;28;20474;-72
2022/07/26 08:51:43;;;;;;;4.40;1.98;;;21.50;96.70;;;;;;5033359;28;20041;-77
2022/07/26 08:54:11;;;;;;;131.82;64.57;;;21.40;96.90;;;;;;5033941;28;20036;-73
2022/07/26 08:56:41;;;;;;;74.20;39.30;;;21.40;97.30;;;;;;5033276;28;20042;-70
2022/07/26 08:59:15;;;;;;;4.95;2.70;;;21.40;97.60;;;;;;5033507;28;20022;-71
2022/07/26 09:01:55;;;;;;;3.85;1.55;;;21.20;97.50;;;;;;5033989;28;20105;-74
2022/07/26 09:04:24;;;;;;;19.48;10.55;;;21.10;97.40;;;;;;5033565;28;20049;-73
2022/07/26 09:06:59;;;;;;;70.68;42.28;;;21.00;97.40;;;;;;5033292;28;20030;-74
2022/07/26 09:09:25;;;;;;;7.07;4.00;;;21.00;97.60;;;;;;5032427;28;20113;-79
2022/07/26 09:11:51;;;;;;;4.18;1.70;;;20.70;97.60;;;;;;5033450;28;20471;-73
2022/07/26 09:14:17;;;;;;;7.43;1.48;;;20.70;97.50;;;;;;5033079;28;20048;-73
2022/07/26 09:16:57;;;;;;;4.30;1.35;;;20.80;97.60;;;;;;5033568;28;20392;-73
2022/07/26 09:19:23;;;;;;;4.50;1.35;;;20.40;97.80;;;;;;5032186;28;20148;-73
2022/07/26 09:21:50;;;;;;;5.38;1.67;;;20.30;98.00;;;;;;5031863;28;20035;-72
2022/07/26 09:24:36;;;;;;;6.85;1.88;;;20.20;98.40;;;;;;5032892;28;20026;-74
2022/07/26 09:27:05;;;;;;;7.55;1.30;;;20.40;98.20;;;;;;5032180;28;20021;-73
2022/07/26 09:29:50;;;;;;;3.55;1.90;;;20.30;98.40;;;;;;5031994;28;20142;-71
2022/07/26 09:32:21;;;;;;;2.40;1.30;;;20.30;98.80;;;;;;5031599;28;20041;-73
2022/07/26 09:34:55;;;;;;;6.40;1.80;;;20.00;98.90;;;;;;5033196;28;20444;-71
2022/07/26 09:37:34;;;;;;;6.80;1.70;;;20.10;99.40;;;;;;5031551;28;20029;-72
2022/07/26 09:40:04;;;;;;;4.25;1.52;;;20.10;99.60;;;;;;5032878;28;20038;-74
2022/07/26 09:42:29;;;;;;;154.00;83.18;;;20.20;99.20;;;;;;5032842;28;20391;-71
2022/07/26 09:44:56;;;;;;;154.80;73.55;;;20.40;99.00;;;;;;5032671;28;20225;-74
2022/07/26 09:47:22;;;;;;;5.55;2.70;;;20.30;98.80;;;;;;5032745;28;20113;-71
2022/07/26 09:49:48;;;;;;;4.32;1.60;;;20.10;99.40;;;;;;5032834;28;20018;-74
2022/07/26 09:52:19;;;;;;;4.13;1.70;;;20.20;99.80;;;;;;5032244;28;20030;-74
2022/07/26 09:54:48;;;;;;;6.45;2.03;;;20.40;99.90;;;;;;5031986;28;20349;-72
2022/07/26 09:57:19;;;;;;;66.05;39.80;;;20.60;99.60;;;;;;5031178;28;20030;-69
2022/07/26 09:59:45;;;;;;;120.65;65.32;;;20.50;99.80;;;;;;5030842;28;20025;-72
2022/07/26 10:02:12;;;;;;;9.73;4.47;;;20.80;99.70;;;;;;5032617;28;20047;-73
2022/07/26 10:04:40;;;;;;;5.47;2.50;;;21.00;99.40;;;;;;5032963;28;20344;-72
2022/07/26 10:07:06;;;;;;;6.82;1.73;;;20.70;99.90;;;;;;5031974;28;20061;-72
2022/07/26 10:09:46;;;;;;;3.60;1.42;;;20.90;99.90;;;;;;5032364;28;20041;-72
2022/07/26 10:12:14;;;;;;;4.72;1.75;;;21.00;99.90;;;;;;5032025;28;20048;-72
2022/07/26 10:14:45;;;;;;;9.90;2.90;;;21.20;99.70;;;;;;5032227;28;20025;-72
2022/07/26 10:17:29;;;;;;;4.32;2.22;;;21.30;99.90;;;;;;5030962;28;20030;-73
2022/07/26 10:20:02;;;;;;;5.85;1.83;;;21.20;99.50;;;;;;5032384;28;20030;-74
2022/07/26 10:22:29;;;;;;;7.47;1.80;;;21.30;99.90;;;;;;5032277;28;20048;-73
2022/07/26 10:25:16;;;;;;;4.00;1.90;;;21.20;99.40;;;;;;5032077;28;20375;-73
2022/07/26 10:27:42;;;;;;;5.07;1.83;;;21.20;99.50;;;;;;5031812;28;20486;-73
2022/07/26 10:30:21;;;;;;;4.57;1.75;;;21.10;99.50;;;;;;5031914;28;20025;-73
2022/07/26 10:32:52;;;;;;;10.45;2.55;;;21.20;99.60;;;;;;5031779;28;20038;-73
2022/07/26 10:35:33;;;;;;;3.03;1.85;;;20.90;99.60;;;;;;5030934;28;20029;-74
2022/07/26 10:38:20;;;;;;;6.78;1.70;;;20.70;99.60;;;;;;5031647;28;20033;-73
2022/07/26 10:40:58;;;;;;;2.53;1.70;;;20.70;99.80;;;;;;5031934;28;20367;-72
2022/07/26 10:43:24;;;;;;;;;;;20.70;99.60;;;;;;5031095;28;20091;-72
2022/07/26 10:46:16;;;;;;;4.43;1.20;;;20.90;99.30;;;;;;5028114;28;20200;-72
2022/07/26 10:48:56;;;;;;;5.88;1.60;;;21.00;99.40;;;;;;5030615;28;20041;-71
2022/07/26 10:51:33;;;;;;;12.77;9.77;;;21.10;99.00;;;;;;5031608;28;20033;-74
2022/07/26 10:54:00;;;;;;;7.38;1.95;;;21.00;98.90;;;;;;5031868;28;20714;-75
2022/07/26 10:56:28;;;;;;;9.25;5.47;;;20.80;98.60;;;;;;5031725;28;20522;-76
2022/07/26 10:58:53;;;;;;;8.67;1.20;;;20.90;98.30;;;;;;5031179;28;20116;-73
2022/07/26 11:01:20;;;;;;;5.53;1.60;;;20.70;98.00;;;;;;5031570;28;20129;-76
2022/07/26 11:03:45;;;;;;;100.20;58.00;;;20.80;97.80;;;;;;5031663;28;20091;-73
2022/07/26 11:06:17;;;;;;;73.72;43.17;;;20.90;97.70;;;;;;5031682;28;20041;-74
2022/07/26 11:08:46;;;;;;;7.05;2.15;;;21.00;97.70;;;;;;5031712;28;20044;-72
2022/07/26 11:11:12;;;;;;;49.30;27.52;;;21.10;97.60;;;;;;5030388;28;20056;-72
2022/07/26 11:13:39;;;;;;;52.90;29.38;;;21.40;96.90;;;;;;5031613;28;20029;-74
2022/07/26 11:16:07;;;;;;;7.38;2.65;;;21.60;96.10;;;;;;5029912;28;20095;-73
2022/07/26 11:18:36;;;;;;;;;;;21.60;95.50;;;;;;5031810;28;20033;-73
2022/07/26 11:21:13;;;;;;;4.50;1.60;;;21.70;95.60;;;;;;5031300;28;19955;-72
2022/07/26 11:23:42;;;;;;;1.88;0.90;;;21.90;95.30;;;;;;5031372;28;20029;-74
2022/07/26 11:26:21;;;;;;;4.30;0.77;;;21.90;94.80;;;;;;5030393;28;20367;-75
2022/07/26 11:28:55;;;;;;;2.85;0.60;;;21.90;94.90;;;;;;5031964;28;20069;-77
2022/07/26 11:31:27;;;;;;;2.88;0.60;;;22.20;94.90;;;;;;5030960;28;20060;-75
2022/07/26 11:33:54;;;;;;;3.40;0.70;;;22.30;94.30;;;;;;5030103;28;20112;-73
2022/07/26 11:36:40;;;;;;;2.67;0.63;;;22.30;93.70;;;;;;5030308;28;20033;-73
2022/07/26 11:39:09;;;;;;;4.30;0.90;;;22.10;93.50;;;;;;5030959;28;20448;-73
2022/07/26 11:41:35;;;;;;;5.72;0.45;;;22.30;92.80;;;;;;5030963;28;20371;-71
2022/07/26 11:44:03;;;;;;;4.32;0.70;;;22.50;92.30;;;;;;5029723;28;20041;-72
2022/07/26 11:46:37;;;;;;;2.85;0.60;;;22.50;92.40;;;;;;5030993;28;20040;-73
2022/07/26 11:49:10;;;;;;;268.75;158.80;;;22.60;92.10;;;;;;5030974;28;20483;-78
2022/07/26 11:51:36;;;;;;;58.20;31.63;;;22.40;92.10;;;;;;5029542;28;20340;-75
2022/07/26 11:54:02;;;;;;;14.15;9.02;;;22.40;92.10;;;;;;5030648;28;20099;-72
2022/07/26 11:56:30;;;;;;;1.73;0.73;;;22.30;91.90;;;;;;5030429;28;20507;-73
2022/07/26 11:58:57;;;;;;;2.00;0.70;;;22.30;91.80;;;;;;5031067;28;20100;-72
2022/07/26 12:01:24;;;;;;;2.80;0.70;;;22.40;91.80;;;;;;5030436;28;20034;-72
2022/07/26 12:03:53;;;;;;;2.70;0.70;;;22.60;91.80;;;;;;5030567;28;20041;-71
2022/07/26 12:06:21;;;;;;;2.55;0.93;;;22.70;91.70;;;;;;5030532;28;20057;-71
2022/07/26 12:08:55;;;;;;;1.58;0.88;;;22.90;91.70;;;;;;5030427;28;20037;-73
2022/07/26 12:11:22;;;;;;;5.07;0.70;;;23.00;91.70;;;;;;5030509;28;20467;-72
2022/07/26 12:13:53;;;;;;;3.97;1.10;;;23.10;91.30;;;;;;5030420;28;20401;-72
2022/07/26 12:16:34;;;;;;;2.42;0.95;;;23.30;91.00;;;;;;5029877;28;20029;-72
2022/07/26 12:19:00;;;;;;;2.13;0.80;;;23.30;90.60;;;;;;5028085;28;20490;-72
2022/07/26 12:21:47;;;;;;;4.13;0.75;;;23.00;90.50;;;;;;5029219;28;20153;-73
2022/07/26 12:24:38;;;;;;;32.03;17.63;;;22.90;91.20;;;;;;5034909;28;20363;-72
2022/07/26 12:27:12;;;;;;;49.60;26.13;;;22.90;91.10;;;;;;5034234;28;20037;-74
2022/07/26 12:29:40;;;;;;;15.75;6.57;;;22.80;91.00;;;;;;5033149;28;20032;-70
2022/07/26 12:32:11;;;;;;;43.25;25.75;;;22.60;91.00;;;;;;5033849;28;20037;-74
2022/07/26 12:34:39;;;;;;;22.02;12.32;;;22.50;91.10;;;;;;5034728;28;20097;-76
2022/07/26 12:37:10;;;;;;;9.75;2.03;;;22.50;91.30;;;;;;5034153;28;20029;-72
2022/07/26 12:39:37;;;;;;;6.95;1.10;;;22.50;91.40;;;;;;5033953;28;20026;-74
2022/07/26 12:42:25;;;;;;;4.85;0.80;;;22.50;91.40;;;;;;5033271;28;20037;-72
2022/07/26 12:44:51;;;;;;;3.55;0.80;;;22.30;91.00;;;;;;5034580;28;20029;-72
2022/07/26 12:47:17;;;;;;;3.33;0.90;;;22.40;91.20;;;;;;5032880;28;20477;-72